Ashton-in-Makerfield, United Kingdom
Current Conditions -  °F | °C
As of 4:50 PM on Tuesday 27 Jan 2015 (Local Time) from EGGP Reporting Station
Broken Clouds Broken Clouds  
Wind Chill: 40°   Ceiling: 3200
Heat Index: 45°   Visibility: 6mi
Dew Point: 41°   Wind: 8mph
Humidity: 87%   Direction: 260°W
Pressure: 30.18"   Gusts: NA
Location:  53.48°N, 2.64°W
Report Text: EGGP 271650Z 26007KT 9999 FEW015 BKN032 07/05 Q1022
Loading
Personal Weather Stations






























Interactive Weather Map New forecast layout! Learn more

10-Day Weather Forecast

Advertisements
Track Severe Weather on mobile